Lanagan, Missouri
Current Conditions -  °F | °C
As of 5:15 AM on Saturday 01 Nov 2014 (Local Time) from KGMJ Reporting Station
Clear Clear  
Wind Chill: 28°   Ceiling: Unl
Heat Index: 28°   Visibility: 10mi
Dew Point: 28°   Wind: 0mph
Humidity: 100%   Direction: NA
Pressure: 30.46"   Gusts: NA
Location:  36.61°N, 94.45°W
Report Text: KGMJ 011015Z AUTO 00000KT 10SM CLR M02/M02 A3046 RMK AO2 LTG DSNT W
Loading
Personal Weather Stations






























Interactive Weather Map
Tropical Storm Tracking
New forecast layout! Learn more

10-Day Weather Forecast

Advertisements
Track Severe Weather on mobile